sensor_id;sensor_type;location;lat;lon;timestamp;P1;durP1;ratioP1;P2;durP2;ratioP2
1759;SDS011;877;46.266;20.062;2023-06-10T00:01:00;17.90;;;15.60;;
1759;SDS011;877;46.266;20.062;2023-06-10T00:03:27;19.27;;;16.33;;
1759;SDS011;877;46.266;20.062;2023-06-10T00:05:58;17.30;;;15.23;;
1759;SDS011;877;46.266;20.062;2023-06-10T00:08:29;20.50;;;16.90;;
1759;SDS011;877;46.266;20.062;2023-06-10T00:10:57;23.03;;;17.33;;
1759;SDS011;877;46.266;20.062;2023-06-10T00:16:01;19.83;;;17.80;;
1759;SDS011;877;46.266;20.062;2023-06-10T00:18:29;19.13;;;17.07;;
1759;SDS011;877;46.266;20.062;2023-06-10T00:23:31;18.53;;;15.07;;
1759;SDS011;877;46.266;20.062;2023-06-10T00:25:59;18.53;;;15.07;;
1759;SDS011;877;46.266;20.062;2023-06-10T00:28:26;15.10;;;13.50;;
1759;SDS011;877;46.266;20.062;2023-06-10T00:33:30;16.73;;;14.93;;
1759;SDS011;877;46.266;20.062;2023-06-10T00:35:56;15.00;;;13.30;;
1759;SDS011;877;46.266;20.062;2023-06-10T00:38:25;13.87;;;11.87;;
1759;SDS011;877;46.266;20.062;2023-06-10T00:40:52;19.73;;;10.13;;
1759;SDS011;877;46.266;20.062;2023-06-10T00:43:20;18.07;;;11.20;;
1759;SDS011;877;46.266;20.062;2023-06-10T00:45:48;14.00;;;10.80;;
1759;SDS011;877;46.266;20.062;2023-06-10T00:48:18;16.13;;;10.50;;
1759;SDS011;877;46.266;20.062;2023-06-10T00:50:50;13.10;;;10.10;;
1759;SDS011;877;46.266;20.062;2023-06-10T00:53:16;14.77;;;11.10;;
1759;SDS011;877;46.266;20.062;2023-06-10T00:58:19;17.90;;;11.50;;
1759;SDS011;877;46.266;20.062;2023-06-10T01:00:48;15.60;;;11.60;;
1759;SDS011;877;46.266;20.062;2023-06-10T01:03:22;13.10;;;11.40;;
1759;SDS011;877;46.266;20.062;2023-06-10T01:05:53;14.57;;;12.97;;
1759;SDS011;877;46.266;20.062;2023-06-10T01:08:37;16.13;;;13.43;;
1759;SDS011;877;46.266;20.062;2023-06-10T01:11:17;17.83;;;14.50;;
1759;SDS011;877;46.266;20.062;2023-06-10T01:14:05;18.07;;;13.73;;
1759;SDS011;877;46.266;20.062;2023-06-10T01:16:33;17.93;;;13.47;;
1759;SDS011;877;46.266;20.062;2023-06-10T01:19:03;13.93;;;12.43;;
1759;SDS011;877;46.266;20.062;2023-06-10T01:21:30;13.93;;;12.30;;
1759;SDS011;877;46.266;20.062;2023-06-10T01:23:58;15.83;;;12.77;;
1759;SDS011;877;46.266;20.062;2023-06-10T01:26:30;18.23;;;13.23;;
1759;SDS011;877;46.266;20.062;2023-06-10T01:34:34;18.20;;;15.17;;
1759;SDS011;877;46.266;20.062;2023-06-10T01:37:13;17.33;;;15.37;;
1759;SDS011;877;46.266;20.062;2023-06-10T01:39:51;17.43;;;14.63;;
1759;SDS011;877;46.266;20.062;2023-06-10T01:42:24;16.03;;;14.20;;
1759;SDS011;877;46.266;20.062;2023-06-10T01:45:05;20.10;;;15.17;;
1759;SDS011;877;46.266;20.062;2023-06-10T01:47:33;18.17;;;13.83;;
1759;SDS011;877;46.266;20.062;2023-06-10T01:50:14;16.60;;;13.70;;
1759;SDS011;877;46.266;20.062;2023-06-10T01:52:45;15.57;;;12.40;;
1759;SDS011;877;46.266;20.062;2023-06-10T01:55:13;17.27;;;12.90;;
1759;SDS011;877;46.266;20.062;2023-06-10T01:57:41;16.13;;;12.33;;
1759;SDS011;877;46.266;20.062;2023-06-10T02:00:07;20.07;;;13.23;;
1759;SDS011;877;46.266;20.062;2023-06-10T02:05:14;17.23;;;13.07;;
1759;SDS011;877;46.266;20.062;2023-06-10T02:07:40;15.10;;;13.50;;
1759;SDS011;877;46.266;20.062;2023-06-10T02:10:06;14.20;;;12.33;;
1759;SDS011;877;46.266;20.062;2023-06-10T02:12:34;15.10;;;12.13;;
1759;SDS011;877;46.266;20.062;2023-06-10T02:15:00;13.03;;;11.67;;
1759;SDS011;877;46.266;20.062;2023-06-10T02:17:25;13.83;;;11.00;;
1759;SDS011;877;46.266;20.062;2023-06-10T02:19:51;13.97;;;11.30;;
1759;SDS011;877;46.266;20.062;2023-06-10T02:22:22;15.77;;;12.40;;
1759;SDS011;877;46.266;20.062;2023-06-10T02:24:59;15.50;;;13.20;;
1759;SDS011;877;46.266;20.062;2023-06-10T02:27:29;14.07;;;12.30;;
1759;SDS011;877;46.266;20.062;2023-06-10T02:29:56;12.93;;;11.53;;
1759;SDS011;877;46.266;20.062;2023-06-10T02:32:22;13.90;;;12.10;;
1759;SDS011;877;46.266;20.062;2023-06-10T02:40:11;15.20;;;11.70;;
1759;SDS011;877;46.266;20.062;2023-06-10T02:45:28;14.87;;;10.87;;
1759;SDS011;877;46.266;20.062;2023-06-10T02:50:31;14.20;;;12.03;;
1759;SDS011;877;46.266;20.062;2023-06-10T02:53:14;12.80;;;10.77;;
1759;SDS011;877;46.266;20.062;2023-06-10T02:55:41;13.13;;;11.60;;
1759;SDS011;877;46.266;20.062;2023-06-10T03:01:27;14.90;;;11.00;;
1759;SDS011;877;46.266;20.062;2023-06-10T03:03:59;11.77;;;10.57;;
1759;SDS011;877;46.266;20.062;2023-06-10T03:09:16;13.23;;;11.20;;
1759;SDS011;877;46.266;20.062;2023-06-10T03:11:43;16.23;;;11.30;;
1759;SDS011;877;46.266;20.062;2023-06-10T03:16:48;12.07;;;9.83;;
1759;SDS011;877;46.266;20.062;2023-06-10T03:21:49;14.90;;;11.03;;
1759;SDS011;877;46.266;20.062;2023-06-10T03:24:19;16.73;;;12.10;;
1759;SDS011;877;46.266;20.062;2023-06-10T03:26:46;15.70;;;13.30;;
1759;SDS011;877;46.266;20.062;2023-06-10T03:29:27;14.83;;;13.17;;
1759;SDS011;877;46.266;20.062;2023-06-10T03:31:53;17.33;;;14.00;;
1759;SDS011;877;46.266;20.062;2023-06-10T03:34:25;19.20;;;14.87;;
1759;SDS011;877;46.266;20.062;2023-06-10T03:36:50;18.20;;;15.10;;
1759;SDS011;877;46.266;20.062;2023-06-10T03:39:16;16.10;;;13.40;;
1759;SDS011;877;46.266;20.062;2023-06-10T03:41:46;17.80;;;13.77;;
1759;SDS011;877;46.266;20.062;2023-06-10T03:52:10;17.10;;;13.90;;
1759;SDS011;877;46.266;20.062;2023-06-10T03:54:42;18.43;;;15.03;;
1759;SDS011;877;46.266;20.062;2023-06-10T03:57:10;18.13;;;13.50;;
1759;SDS011;877;46.266;20.062;2023-06-10T03:59:38;19.23;;;16.47;;
1759;SDS011;877;46.266;20.062;2023-06-10T04:02:04;15.77;;;13.23;;
1759;SDS011;877;46.266;20.062;2023-06-10T04:04:30;17.50;;;14.37;;
1759;SDS011;877;46.266;20.062;2023-06-10T04:06:57;17.63;;;14.37;;
1759;SDS011;877;46.266;20.062;2023-06-10T04:11:57;21.20;;;15.60;;
1759;SDS011;877;46.266;20.062;2023-06-10T04:14:36;15.47;;;12.80;;
1759;SDS011;877;46.266;20.062;2023-06-10T04:17:03;16.03;;;12.80;;
1759;SDS011;877;46.266;20.062;2023-06-10T04:19:43;13.70;;;12.20;;
1759;SDS011;877;46.266;20.062;2023-06-10T04:22:09;17.43;;;12.97;;
1759;SDS011;877;46.266;20.062;2023-06-10T04:24:37;18.90;;;12.90;;
1759;SDS011;877;46.266;20.062;2023-06-10T04:27:04;18.50;;;12.80;;
1759;SDS011;877;46.266;20.062;2023-06-10T04:29:32;16.60;;;12.43;;
1759;SDS011;877;46.266;20.062;2023-06-10T04:32:04;18.87;;;12.80;;
1759;SDS011;877;46.266;20.062;2023-06-10T04:34:33;18.00;;;13.00;;
1759;SDS011;877;46.266;20.062;2023-06-10T04:36:59;18.90;;;13.27;;
1759;SDS011;877;46.266;20.062;2023-06-10T04:39:32;18.23;;;12.80;;
1759;SDS011;877;46.266;20.062;2023-06-10T04:42:03;14.73;;;12.40;;
1759;SDS011;877;46.266;20.062;2023-06-10T04:44:31;13.07;;;11.67;;
1759;SDS011;877;46.266;20.062;2023-06-10T04:47:05;15.50;;;12.33;;
1759;SDS011;877;46.266;20.062;2023-06-10T04:49:33;13.17;;;11.63;;
1759;SDS011;877;46.266;20.062;2023-06-10T04:52:04;17.63;;;11.93;;
1759;SDS011;877;46.266;20.062;2023-06-10T04:54:30;14.30;;;11.67;;
1759;SDS011;877;46.266;20.062;2023-06-10T04:56:58;15.47;;;11.90;;
1759;SDS011;877;46.266;20.062;2023-06-10T04:59:27;15.83;;;11.90;;
1759;SDS011;877;46.266;20.062;2023-06-10T05:01:58;20.00;;;11.23;;
1759;SDS011;877;46.266;20.062;2023-06-10T05:04:25;15.60;;;13.20;;
1759;SDS011;877;46.266;20.062;2023-06-10T05:06:52;14.20;;;12.30;;
1759;SDS011;877;46.266;20.062;2023-06-10T05:09:19;14.50;;;13.00;;
1759;SDS011;877;46.266;20.062;2023-06-10T05:11:46;15.30;;;12.07;;
1759;SDS011;877;46.266;20.062;2023-06-10T05:14:13;19.77;;;13.10;;
1759;SDS011;877;46.266;20.062;2023-06-10T05:16:42;15.60;;;12.80;;
1759;SDS011;877;46.266;20.062;2023-06-10T05:19:08;18.77;;;14.07;;
1759;SDS011;877;46.266;20.062;2023-06-10T05:21:34;16.30;;;13.70;;
1759;SDS011;877;46.266;20.062;2023-06-10T05:24:00;15.80;;;13.67;;
1759;SDS011;877;46.266;20.062;2023-06-10T05:26:26;14.93;;;12.03;;
1759;SDS011;877;46.266;20.062;2023-06-10T05:28:53;17.73;;;14.20;;
1759;SDS011;877;46.266;20.062;2023-06-10T05:31:21;15.97;;;14.33;;
1759;SDS011;877;46.266;20.062;2023-06-10T05:33:48;15.97;;;14.27;;
1759;SDS011;877;46.266;20.062;2023-06-10T05:36:15;15.93;;;14.20;;
1759;SDS011;877;46.266;20.062;2023-06-10T05:38:42;15.10;;;13.03;;
1759;SDS011;877;46.266;20.062;2023-06-10T05:41:08;14.80;;;12.90;;
1759;SDS011;877;46.266;20.062;2023-06-10T05:43:34;20.33;;;14.57;;
1759;SDS011;877;46.266;20.062;2023-06-10T05:46:01;17.90;;;14.50;;
1759;SDS011;877;46.266;20.062;2023-06-10T05:48:27;32.97;;;29.57;;
1759;SDS011;877;46.266;20.062;2023-06-10T05:50:53;18.67;;;16.70;;
1759;SDS011;877;46.266;20.062;2023-06-10T05:53:20;17.20;;;14.53;;
1759;SDS011;877;46.266;20.062;2023-06-10T05:55:46;15.47;;;12.93;;
1759;SDS011;877;46.266;20.062;2023-06-10T05:58:14;21.60;;;15.90;;
1759;SDS011;877;46.266;20.062;2023-06-10T06:00:40;19.27;;;16.47;;
1759;SDS011;877;46.266;20.062;2023-06-10T06:03:07;17.43;;;15.10;;
1759;SDS011;877;46.266;20.062;2023-06-10T06:05:36;17.80;;;14.13;;
1759;SDS011;877;46.266;20.062;2023-06-10T06:10:41;17.60;;;14.97;;
1759;SDS011;877;46.266;20.062;2023-06-10T06:13:07;15.70;;;14.10;;
1759;SDS011;877;46.266;20.062;2023-06-10T06:15:42;15.80;;;14.03;;
1759;SDS011;877;46.266;20.062;2023-06-10T06:18:10;14.80;;;13.37;;
1759;SDS011;877;46.266;20.062;2023-06-10T06:20:36;15.70;;;14.00;;
1759;SDS011;877;46.266;20.062;2023-06-10T06:23:01;16.57;;;13.10;;
1759;SDS011;877;46.266;20.062;2023-06-10T06:25:38;13.90;;;12.43;;
1759;SDS011;877;46.266;20.062;2023-06-10T06:28:09;13.30;;;11.93;;
1759;SDS011;877;46.266;20.062;2023-06-10T06:30:36;19.47;;;11.67;;
1759;SDS011;877;46.266;20.062;2023-06-10T06:33:02;12.00;;;10.10;;
1759;SDS011;877;46.266;20.062;2023-06-10T06:35:32;12.20;;;10.90;;
1759;SDS011;877;46.266;20.062;2023-06-10T06:38:06;13.93;;;12.53;;
1759;SDS011;877;46.266;20.062;2023-06-10T06:40:32;15.30;;;12.90;;
1759;SDS011;877;46.266;20.062;2023-06-10T06:42:59;20.37;;;12.20;;
1759;SDS011;877;46.266;20.062;2023-06-10T06:45:26;13.37;;;12.00;;
1759;SDS011;877;46.266;20.062;2023-06-10T06:47:52;12.17;;;10.97;;
1759;SDS011;877;46.266;20.062;2023-06-10T06:50:17;14.23;;;10.93;;
1759;SDS011;877;46.266;20.062;2023-06-10T06:52:44;13.67;;;10.97;;
1759;SDS011;877;46.266;20.062;2023-06-10T06:55:18;11.87;;;10.73;;
1759;SDS011;877;46.266;20.062;2023-06-10T06:57:45;14.27;;;12.77;;
1759;SDS011;877;46.266;20.062;2023-06-10T07:00:11;15.00;;;10.37;;
1759;SDS011;877;46.266;20.062;2023-06-10T07:05:07;11.37;;;10.27;;
1759;SDS011;877;46.266;20.062;2023-06-10T07:07:33;24.47;;;22.17;;
1759;SDS011;877;46.266;20.062;2023-06-10T07:09:58;10.60;;;9.60;;
1759;SDS011;877;46.266;20.062;2023-06-10T07:12:24;11.20;;;10.03;;
1759;SDS011;877;46.266;20.062;2023-06-10T07:14:51;11.90;;;8.50;;
1759;SDS011;877;46.266;20.062;2023-06-10T07:17:19;9.70;;;8.60;;
1759;SDS011;877;46.266;20.062;2023-06-10T07:19:45;9.30;;;7.17;;
1759;SDS011;877;46.266;20.062;2023-06-10T07:22:11;10.00;;;6.87;;
1759;SDS011;877;46.266;20.062;2023-06-10T07:24:37;7.90;;;5.90;;
1759;SDS011;877;46.266;20.062;2023-06-10T07:27:02;7.30;;;6.30;;
1759;SDS011;877;46.266;20.062;2023-06-10T07:29:29;7.13;;;6.43;;
1759;SDS011;877;46.266;20.062;2023-06-10T07:31:55;5.97;;;5.40;;
1759;SDS011;877;46.266;20.062;2023-06-10T07:34:21;6.83;;;6.20;;
1759;SDS011;877;46.266;20.062;2023-06-10T07:36:46;6.37;;;5.77;;
1759;SDS011;877;46.266;20.062;2023-06-10T07:39:12;8.27;;;5.93;;
1759;SDS011;877;46.266;20.062;2023-06-10T07:41:39;5.87;;;5.37;;
1759;SDS011;877;46.266;20.062;2023-06-10T07:44:05;6.10;;;5.07;;
1759;SDS011;877;46.266;20.062;2023-06-10T07:46:31;6.20;;;5.57;;
1759;SDS011;877;46.266;20.062;2023-06-10T07:48:57;8.13;;;5.50;;
1759;SDS011;877;46.266;20.062;2023-06-10T07:51:23;5.63;;;4.63;;
1759;SDS011;877;46.266;20.062;2023-06-10T07:53:49;5.23;;;4.73;;
1759;SDS011;877;46.266;20.062;2023-06-10T07:56:14;5.40;;;4.70;;
1759;SDS011;877;46.266;20.062;2023-06-10T07:58:40;5.70;;;4.63;;
1759;SDS011;877;46.266;20.062;2023-06-10T08:01:06;5.63;;;4.67;;
1759;SDS011;877;46.266;20.062;2023-06-10T08:03:32;5.23;;;4.70;;
1759;SDS011;877;46.266;20.062;2023-06-10T08:05:58;7.80;;;5.70;;
1759;SDS011;877;46.266;20.062;2023-06-10T08:08:26;5.03;;;4.53;;
1759;SDS011;877;46.266;20.062;2023-06-10T08:10:53;7.10;;;5.17;;
1759;SDS011;877;46.266;20.062;2023-06-10T08:13:19;5.50;;;4.53;;
1759;SDS011;877;46.266;20.062;2023-06-10T08:15:45;6.33;;;4.63;;
1759;SDS011;877;46.266;20.062;2023-06-10T08:18:13;6.73;;;5.17;;
1759;SDS011;877;46.266;20.062;2023-06-10T08:20:38;5.13;;;4.57;;
1759;SDS011;877;46.266;20.062;2023-06-10T08:23:06;4.93;;;4.43;;
1759;SDS011;877;46.266;20.062;2023-06-10T08:25:34;6.70;;;5.00;;
1759;SDS011;877;46.266;20.062;2023-06-10T08:28:01;5.50;;;5.00;;
1759;SDS011;877;46.266;20.062;2023-06-10T08:30:28;4.47;;;4.07;;
1759;SDS011;877;46.266;20.062;2023-06-10T08:32:55;4.33;;;3.50;;
1759;SDS011;877;46.266;20.062;2023-06-10T08:35:21;4.13;;;3.73;;
1759;SDS011;877;46.266;20.062;2023-06-10T08:37:48;4.90;;;4.40;;
1759;SDS011;877;46.266;20.062;2023-06-10T08:40:15;5.30;;;4.73;;
1759;SDS011;877;46.266;20.062;2023-06-10T08:42:45;6.03;;;3.93;;
1759;SDS011;877;46.266;20.062;2023-06-10T08:45:34;8.17;;;6.87;;
1759;SDS011;877;46.266;20.062;2023-06-10T08:48:04;7.50;;;6.80;;
1759;SDS011;877;46.266;20.062;2023-06-10T08:50:37;5.30;;;3.83;;
1759;SDS011;877;46.266;20.062;2023-06-10T08:53:06;5.07;;;4.53;;
1759;SDS011;877;46.266;20.062;2023-06-10T08:55:37;4.60;;;4.03;;
1759;SDS011;877;46.266;20.062;2023-06-10T08:58:06;5.37;;;3.40;;
1759;SDS011;877;46.266;20.062;2023-06-10T09:00:36;4.00;;;3.50;;
1759;SDS011;877;46.266;20.062;2023-06-10T09:03:03;4.97;;;3.13;;
1759;SDS011;877;46.266;20.062;2023-06-10T09:05:32;6.13;;;3.83;;
1759;SDS011;877;46.266;20.062;2023-06-10T09:08:06;4.47;;;3.67;;
1759;SDS011;877;46.266;20.062;2023-06-10T09:10:34;4.63;;;4.10;;
1759;SDS011;877;46.266;20.062;2023-06-10T09:13:00;7.20;;;4.57;;
1759;SDS011;877;46.266;20.062;2023-06-10T09:15:31;5.33;;;4.47;;
1759;SDS011;877;46.266;20.062;2023-06-10T09:17:56;5.87;;;4.20;;
1759;SDS011;877;46.266;20.062;2023-06-10T09:20:22;5.10;;;4.30;;
1759;SDS011;877;46.266;20.062;2023-06-10T09:22:49;7.10;;;4.37;;
1759;SDS011;877;46.266;20.062;2023-06-10T09:25:16;6.70;;;5.33;;
1759;SDS011;877;46.266;20.062;2023-06-10T09:27:52;6.83;;;5.70;;
1759;SDS011;877;46.266;20.062;2023-06-10T09:30:38;3.70;;;3.20;;
1759;SDS011;877;46.266;20.062;2023-06-10T09:33:09;4.23;;;3.47;;
1759;SDS011;877;46.266;20.062;2023-06-10T09:35:44;4.77;;;3.57;;
1759;SDS011;877;46.266;20.062;2023-06-10T09:38:11;3.80;;;2.80;;
1759;SDS011;877;46.266;20.062;2023-06-10T09:40:52;3.67;;;3.30;;
1759;SDS011;877;46.266;20.062;2023-06-10T09:43:19;8.40;;;7.43;;
1759;SDS011;877;46.266;20.062;2023-06-10T09:45:48;7.23;;;6.27;;
1759;SDS011;877;46.266;20.062;2023-06-10T09:48:16;6.87;;;3.57;;
1759;SDS011;877;46.266;20.062;2023-06-10T09:50:42;4.97;;;3.50;;
1759;SDS011;877;46.266;20.062;2023-06-10T09:53:10;6.93;;;4.80;;
1759;SDS011;877;46.266;20.062;2023-06-10T09:55:54;8.60;;;4.70;;
1759;SDS011;877;46.266;20.062;2023-06-10T09:58:33;16.27;;;5.03;;
1759;SDS011;877;46.266;20.062;2023-06-10T10:04:04;6.10;;;4.70;;
1759;SDS011;877;46.266;20.062;2023-06-10T10:06:32;7.87;;;5.20;;
1759;SDS011;877;46.266;20.062;2023-06-10T10:09:06;8.50;;;4.80;;
1759;SDS011;877;46.266;20.062;2023-06-10T10:11:31;6.00;;;4.90;;
1759;SDS011;877;46.266;20.062;2023-06-10T10:14:00;5.73;;;4.00;;
1759;SDS011;877;46.266;20.062;2023-06-10T10:16:35;5.97;;;4.40;;
1759;SDS011;877;46.266;20.062;2023-06-10T10:19:18;5.30;;;4.80;;
1759;SDS011;877;46.266;20.062;2023-06-10T10:21:53;5.20;;;4.10;;
1759;SDS011;877;46.266;20.062;2023-06-10T10:24:23;6.60;;;5.17;;
1759;SDS011;877;46.266;20.062;2023-06-10T10:26:58;7.93;;;5.07;;
1759;SDS011;877;46.266;20.062;2023-06-10T10:29:40;8.77;;;5.10;;
1759;SDS011;877;46.266;20.062;2023-06-10T10:32:11;5.40;;;4.53;;
1759;SDS011;877;46.266;20.062;2023-06-10T10:37:37;4.90;;;4.40;;
1759;SDS011;877;46.266;20.062;2023-06-10T10:40:19;6.80;;;4.33;;
1759;SDS011;877;46.266;20.062;2023-06-10T10:42:51;6.00;;;4.23;;
1759;SDS011;877;46.266;20.062;2023-06-10T10:48:12;5.23;;;3.43;;
1759;SDS011;877;46.266;20.062;2023-06-10T10:50:45;4.40;;;3.30;;
1759;SDS011;877;46.266;20.062;2023-06-10T10:53:23;6.50;;;3.50;;
1759;SDS011;877;46.266;20.062;2023-06-10T10:56:06;4.17;;;3.60;;
1759;SDS011;877;46.266;20.062;2023-06-10T10:58:35;3.73;;;3.10;;
1759;SDS011;877;46.266;20.062;2023-06-10T11:01:09;4.50;;;3.03;;
1759;SDS011;877;46.266;20.062;2023-06-10T11:03:43;3.07;;;2.63;;
1759;SDS011;877;46.266;20.062;2023-06-10T11:06:13;3.80;;;2.80;;
1759;SDS011;877;46.266;20.062;2023-06-10T11:11:25;3.20;;;2.63;;
1759;SDS011;877;46.266;20.062;2023-06-10T11:16:29;3.60;;;2.23;;
1759;SDS011;877;46.266;20.062;2023-06-10T11:19:03;2.90;;;2.10;;
1759;SDS011;877;46.266;20.062;2023-06-10T11:21:30;3.40;;;2.40;;
1759;SDS011;877;46.266;20.062;2023-06-10T11:23:58;4.00;;;2.90;;
1759;SDS011;877;46.266;20.062;2023-06-10T11:29:02;3.60;;;2.60;;
1759;SDS011;877;46.266;20.062;2023-06-10T11:31:33;3.50;;;2.47;;
1759;SDS011;877;46.266;20.062;2023-06-10T11:34:11;2.93;;;2.40;;
1759;SDS011;877;46.266;20.062;2023-06-10T11:36:40;3.70;;;2.63;;
1759;SDS011;877;46.266;20.062;2023-06-10T11:39:08;4.53;;;2.30;;
1759;SDS011;877;46.266;20.062;2023-06-10T11:41:34;3.10;;;2.47;;
1759;SDS011;877;46.266;20.062;2023-06-10T11:44:09;2.90;;;2.10;;
1759;SDS011;877;46.266;20.062;2023-06-10T11:46:36;3.83;;;2.60;;
1759;SDS011;877;46.266;20.062;2023-06-10T11:49:04;3.53;;;2.53;;
1759;SDS011;877;46.266;20.062;2023-06-10T11:51:36;3.30;;;2.80;;
1759;SDS011;877;46.266;20.062;2023-06-10T11:54:05;3.13;;;2.30;;
1759;SDS011;877;46.266;20.062;2023-06-10T11:56:31;5.53;;;4.70;;
1759;SDS011;877;46.266;20.062;2023-06-10T11:58:58;4.43;;;2.90;;
1759;SDS011;877;46.266;20.062;2023-06-10T12:01:33;3.70;;;3.20;;
1759;SDS011;877;46.266;20.062;2023-06-10T12:04:01;4.90;;;3.47;;
1759;SDS011;877;46.266;20.062;2023-06-10T12:06:47;3.40;;;2.90;;
1759;SDS011;877;46.266;20.062;2023-06-10T12:11:43;5.50;;;3.03;;
1759;SDS011;877;46.266;20.062;2023-06-10T12:14:10;3.90;;;2.70;;
1759;SDS011;877;46.266;20.062;2023-06-10T12:16:36;6.60;;;4.70;;
1759;SDS011;877;46.266;20.062;2023-06-10T12:19:02;6.83;;;4.97;;
1759;SDS011;877;46.266;20.062;2023-06-10T12:21:31;6.07;;;4.80;;
1759;SDS011;877;46.266;20.062;2023-06-10T12:24:02;5.73;;;5.13;;
1759;SDS011;877;46.266;20.062;2023-06-10T12:26:42;5.43;;;4.40;;
1759;SDS011;877;46.266;20.062;2023-06-10T12:29:23;5.77;;;5.10;;
1759;SDS011;877;46.266;20.062;2023-06-10T12:31:53;5.40;;;4.57;;
1759;SDS011;877;46.266;20.062;2023-06-10T12:37:02;4.83;;;4.30;;
1759;SDS011;877;46.266;20.062;2023-06-10T12:39:31;5.20;;;3.87;;
1759;SDS011;877;46.266;20.062;2023-06-10T12:41:57;7.00;;;4.47;;
1759;SDS011;877;46.266;20.062;2023-06-10T12:44:33;5.60;;;4.20;;
1759;SDS011;877;46.266;20.062;2023-06-10T12:47:09;4.77;;;3.77;;
1759;SDS011;877;46.266;20.062;2023-06-10T12:49:41;5.30;;;4.60;;
1759;SDS011;877;46.266;20.062;2023-06-10T12:52:08;5.13;;;3.97;;
1759;SDS011;877;46.266;20.062;2023-06-10T12:54:34;5.90;;;3.03;;
1759;SDS011;877;46.266;20.062;2023-06-10T12:57:00;4.60;;;3.30;;
1759;SDS011;877;46.266;20.062;2023-06-10T12:59:27;4.13;;;3.40;;
1759;SDS011;877;46.266;20.062;2023-06-10T13:01:53;6.23;;;4.00;;
1759;SDS011;877;46.266;20.062;2023-06-10T13:04:20;4.17;;;3.17;;
1759;SDS011;877;46.266;20.062;2023-06-10T13:06:46;6.53;;;4.43;;
1759;SDS011;877;46.266;20.062;2023-06-10T13:09:14;6.70;;;4.20;;
1759;SDS011;877;46.266;20.062;2023-06-10T13:11:40;6.20;;;4.00;;
1759;SDS011;877;46.266;20.062;2023-06-10T13:14:07;4.40;;;3.50;;
1759;SDS011;877;46.266;20.062;2023-06-10T13:16:33;4.43;;;3.60;;
1759;SDS011;877;46.266;20.062;2023-06-10T13:18:59;5.33;;;4.60;;
1759;SDS011;877;46.266;20.062;2023-06-10T13:21:27;6.50;;;4.33;;
1759;SDS011;877;46.266;20.062;2023-06-10T13:23:53;5.07;;;4.00;;
1759;SDS011;877;46.266;20.062;2023-06-10T13:26:19;5.20;;;4.20;;
1759;SDS011;877;46.266;20.062;2023-06-10T13:28:46;5.10;;;4.50;;
1759;SDS011;877;46.266;20.062;2023-06-10T13:31:12;4.87;;;3.60;;
1759;SDS011;877;46.266;20.062;2023-06-10T13:33:37;5.60;;;4.40;;
1759;SDS011;877;46.266;20.062;2023-06-10T13:36:04;4.93;;;4.07;;
1759;SDS011;877;46.266;20.062;2023-06-10T13:38:30;4.57;;;3.37;;
1759;SDS011;877;46.266;20.062;2023-06-10T13:40:56;6.90;;;4.13;;
1759;SDS011;877;46.266;20.062;2023-06-10T13:43:25;5.33;;;3.87;;
1759;SDS011;877;46.266;20.062;2023-06-10T13:45:52;5.43;;;3.93;;
1759;SDS011;877;46.266;20.062;2023-06-10T13:48:17;6.30;;;4.50;;
1759;SDS011;877;46.266;20.062;2023-06-10T13:50:43;10.33;;;4.43;;
1759;SDS011;877;46.266;20.062;2023-06-10T13:53:12;6.40;;;4.03;;
1759;SDS011;877;46.266;20.062;2023-06-10T13:55:38;6.07;;;4.13;;
1759;SDS011;877;46.266;20.062;2023-06-10T13:58:04;6.27;;;3.80;;
1759;SDS011;877;46.266;20.062;2023-06-10T14:00:30;4.73;;;3.80;;
1759;SDS011;877;46.266;20.062;2023-06-10T14:02:56;4.87;;;4.00;;
1759;SDS011;877;46.266;20.062;2023-06-10T14:05:29;4.80;;;3.90;;
1759;SDS011;877;46.266;20.062;2023-06-10T14:07:55;27.87;;;4.43;;
1759;SDS011;877;46.266;20.062;2023-06-10T14:10:22;4.90;;;3.93;;
1759;SDS011;877;46.266;20.062;2023-06-10T14:12:48;8.23;;;4.13;;
1759;SDS011;877;46.266;20.062;2023-06-10T14:15:21;4.97;;;3.50;;
1759;SDS011;877;46.266;20.062;2023-06-10T14:17:47;4.63;;;4.00;;
1759;SDS011;877;46.266;20.062;2023-06-10T14:20:13;4.70;;;4.00;;
1759;SDS011;877;46.266;20.062;2023-06-10T14:22:39;5.30;;;4.00;;
1759;SDS011;877;46.266;20.062;2023-06-10T14:25:06;4.80;;;3.70;;
1759;SDS011;877;46.266;20.062;2023-06-10T14:27:33;4.77;;;3.93;;
1759;SDS011;877;46.266;20.062;2023-06-10T14:30:06;4.57;;;3.60;;
1759;SDS011;877;46.266;20.062;2023-06-10T14:32:32;9.30;;;8.40;;
1759;SDS011;877;46.266;20.062;2023-06-10T14:35:03;9.83;;;4.37;;
1759;SDS011;877;46.266;20.062;2023-06-10T14:37:29;4.63;;;3.87;;
1759;SDS011;877;46.266;20.062;2023-06-10T14:39:57;5.60;;;4.00;;
1759;SDS011;877;46.266;20.062;2023-06-10T14:42:24;4.80;;;4.17;;
1759;SDS011;877;46.266;20.062;2023-06-10T14:44:50;5.00;;;3.77;;
1759;SDS011;877;46.266;20.062;2023-06-10T14:47:16;4.33;;;3.73;;
1759;SDS011;877;46.266;20.062;2023-06-10T14:49:41;4.97;;;3.83;;
1759;SDS011;877;46.266;20.062;2023-06-10T14:52:09;4.37;;;3.27;;
1759;SDS011;877;46.266;20.062;2023-06-10T14:54:35;6.80;;;3.53;;
1759;SDS011;877;46.266;20.062;2023-06-10T14:57:01;6.93;;;3.43;;
1759;SDS011;877;46.266;20.062;2023-06-10T14:59:26;4.10;;;2.90;;
1759;SDS011;877;46.266;20.062;2023-06-10T15:01:55;4.27;;;3.10;;
1759;SDS011;877;46.266;20.062;2023-06-10T15:04:22;4.60;;;3.17;;
1759;SDS011;877;46.266;20.062;2023-06-10T15:06:47;4.53;;;2.87;;
1759;SDS011;877;46.266;20.062;2023-06-10T15:09:16;3.70;;;2.70;;
1759;SDS011;877;46.266;20.062;2023-06-10T15:11:41;4.17;;;3.10;;
1759;SDS011;877;46.266;20.062;2023-06-10T15:14:07;3.80;;;2.73;;
1759;SDS011;877;46.266;20.062;2023-06-10T15:16:34;3.80;;;2.87;;
1759;SDS011;877;46.266;20.062;2023-06-10T15:19:02;4.43;;;3.20;;
1759;SDS011;877;46.266;20.062;2023-06-10T15:21:28;4.00;;;3.07;;
1759;SDS011;877;46.266;20.062;2023-06-10T15:23:54;3.63;;;2.53;;
1759;SDS011;877;46.266;20.062;2023-06-10T15:26:20;3.43;;;2.80;;
1759;SDS011;877;46.266;20.062;2023-06-10T15:28:52;4.17;;;2.93;;
1759;SDS011;877;46.266;20.062;2023-06-10T15:31:18;3.83;;;2.60;;
1759;SDS011;877;46.266;20.062;2023-06-10T15:33:45;4.90;;;3.03;;
1759;SDS011;877;46.266;20.062;2023-06-10T15:36:13;4.30;;;2.57;;
1759;SDS011;877;46.266;20.062;2023-06-10T15:38:43;4.50;;;2.57;;
1759;SDS011;877;46.266;20.062;2023-06-10T15:41:08;5.00;;;3.00;;
1759;SDS011;877;46.266;20.062;2023-06-10T15:43:34;4.00;;;2.70;;
1759;SDS011;877;46.266;20.062;2023-06-10T15:46:01;3.93;;;2.50;;
1759;SDS011;877;46.266;20.062;2023-06-10T15:48:27;4.83;;;2.80;;
1759;SDS011;877;46.266;20.062;2023-06-10T15:50:53;3.30;;;2.70;;
1759;SDS011;877;46.266;20.062;2023-06-10T15:53:19;3.80;;;2.87;;
1759;SDS011;877;46.266;20.062;2023-06-10T15:55:46;4.53;;;3.00;;
1759;SDS011;877;46.266;20.062;2023-06-10T15:58:14;3.80;;;2.90;;
1759;SDS011;877;46.266;20.062;2023-06-10T16:00:39;4.83;;;3.30;;
1759;SDS011;877;46.266;20.062;2023-06-10T16:03:05;3.63;;;3.00;;
1759;SDS011;877;46.266;20.062;2023-06-10T16:05:31;3.47;;;2.90;;
1759;SDS011;877;46.266;20.062;2023-06-10T16:07:57;4.03;;;2.87;;
1759;SDS011;877;46.266;20.062;2023-06-10T16:10:26;4.50;;;3.00;;
1759;SDS011;877;46.266;20.062;2023-06-10T16:12:51;4.90;;;3.53;;
1759;SDS011;877;46.266;20.062;2023-06-10T16:15:17;4.23;;;3.37;;
1759;SDS011;877;46.266;20.062;2023-06-10T16:17:43;5.07;;;3.17;;
1759;SDS011;877;46.266;20.062;2023-06-10T16:20:09;3.60;;;3.10;;
1759;SDS011;877;46.266;20.062;2023-06-10T16:22:35;4.23;;;3.70;;
1759;SDS011;877;46.266;20.062;2023-06-10T16:25:01;4.07;;;3.23;;
1759;SDS011;877;46.266;20.062;2023-06-10T16:27:27;3.73;;;3.10;;
1759;SDS011;877;46.266;20.062;2023-06-10T16:30:02;3.90;;;3.50;;